Winamac, IN

11:33 AM EDT on April 25, 2015 (GMT -0400)
Porter County Municipal | | Change Station
CLOSE
Current Station
Airport
Location: Valparaiso,
Elevation: 768 ft
Nearby Weather Stations

Elev 768 ft 41.45 °N, 87.01 °W | Updated 37 minutes ago

Rain
Rain
42 °F
Feels Like 34 °F
N
16
Wind Variable Wind from East
Gusts 30 mph

Today
High -- | Low -- °F
--% Chance of Precip.
Yesterday
High -- | Low -- °F
Precip. -- in
6:52 AM 8:36 PM
Waxing Crescent, 46% visible
Pressure 29.78 in
Visibility 5.0 miles
Clouds Overcast 5000 ft
Windchill 34 °F
Dew Point 40 °F
Humidity 92%
Rainfall 0.35 in
Snow Depth Not available.
UV 2 out of 12
Pollen 10.00 out of 12
Air Quality Not available.
Flu Activity Local Activity
METAR KVPZ 251456Z AUTO 08014G26KT 5SM -RA BR OVC050 06/04 A2977 RMK AO2 PK WND 08026/1451 SLP083 P0011 60021 T00560044 58015 TSNO

More Conditions Fewer Conditions

Pressure 29.78 in
Visibility 5.0 miles
Clouds Overcast 5000 ft
Windchill 34 °F
Dew Point 40 °F
Humidity 92%
Rainfall 0.35 in
Snow Depth Not available.
UV 2 out of 12
Pollen 10.00 out of 12
Air Quality Not available.
Flu Activity Local Activity
METAR KVPZ 251456Z AUTO 08014G26KT 5SM -RA BR OVC050 06/04 A2977 RMK AO2 PK WND 08026/1451 SLP083 P0011 60021 T00560044 58015 TSNO

More Conditions Fewer Conditions

10-Day Weather Forecast

Almanac

Astronomy

Apr. 25, 2015 Rise Set
Actual Time
Civil Twilight
Nautical Twilight
Astronomical Twilight
Moon
Length of Visible Light
Length of Day
Tomorrow will be .
, % of the Moon is Illuminated

Today's Extremes

State Highs State Lows

Community

WunderPhotos

Upload Photos

1,816,714 photos uploaded!

WunderBlogs® & News

Nearby

Air Quality

  Air Quality AQ Index Pollutant
Not available.

Snow Depth

Station Depth Elevation

Earthquake Activity

City Distance Mag. Time & Date
Minimum magnitude displayed is 2.5.

Coastal Water Temperatures

Place Temperature

Stations

Nearby Weather Stations

Station Location Temp. Windchill Dew Point Humidity Wind Precip. Elev Updated Type